Accueil
METAR-TAF:

METAR-TAF

Aéroports :

Aéroport Franz-Josef-Strauß de Munich

Munich, Allemagne

latitude: 48-21N, longitude: 011-47E, altitude: 453 m

Observation

Le bulletin a été fait il y a 7 minutes, à 01:20 UTC
Vent 7 kt de est/nord-est
Température 13°C
Humidité 67%
Pression 1016 hPa
Visibilité 10 km ou plus
pas de nuages en-dessous de 1500 mètres et pas de cumulonimbus.

METAR: EDDM 210120Z 07007KT CAVOK 13/07 Q1016 NOSIG

Heure: 03:27 (01:27 UTC)

Prévision

Le bulletin a été fait il y a 2 heures et 27 minutes, à 23:00 UTC
Prévision valable du 21 à 00 UTC au 22 à 06 UTC
Vent 8 kt de est
Visibilité 10 km ou plus
pas de nuages en-dessous de 1500 mètres et pas de cumulonimbus.
Evoluant progressivement
du 21 à 17 UTC au 21 à 19 UTC
Vent 3 kt de direction variable

TAF: EDDM 202300Z 2100/2206 08008KT CAVOK BECMG 2117/2119 VRB03KT

Observations et prévisions météorologiques de plus de 4000 aéroports (messages METAR et TAF).

Les stations disponibles sont représentées par des disques jaunes et rouges sur la carte.

Passer la souris dessus pour voir le nom de la station.

Cliquer dessus pour voir les observations et prévisions météorologiques.

Pour changer de carte: cliquez sur les boutons verts avec une croix noire pour zoomer, sur le bouton vert avec un tiret pour effectuer un zoom arrière, ou sur les flèches vertes pour les cartes adjacentes.


METAR-TAF: